sensor_id;sensor_type;location;lat;lon;timestamp;temperature;humidity
74153;DHT22;62505;46.070;14.492;2023-04-01T00:00:33;21.40;60.60
74153;DHT22;62505;46.070;14.492;2023-04-01T00:03:00;21.40;60.60
74153;DHT22;62505;46.070;14.492;2023-04-01T00:05:27;21.40;60.60
74153;DHT22;62505;46.070;14.492;2023-04-01T00:07:55;21.40;60.60
74153;DHT22;62505;46.070;14.492;2023-04-01T00:10:22;21.40;60.60
74153;DHT22;62505;46.070;14.492;2023-04-01T00:12:50;21.40;60.60
74153;DHT22;62505;46.070;14.492;2023-04-01T00:15:17;21.40;60.60
74153;DHT22;62505;46.070;14.492;2023-04-01T00:17:44;21.40;60.60
74153;DHT22;62505;46.070;14.492;2023-04-01T00:20:11;21.40;60.60
74153;DHT22;62505;46.070;14.492;2023-04-01T00:22:39;21.40;60.60
74153;DHT22;62505;46.070;14.492;2023-04-01T00:25:09;21.40;60.60
74153;DHT22;62505;46.070;14.492;2023-04-01T00:27:36;21.30;60.50
74153;DHT22;62505;46.070;14.492;2023-04-01T00:30:04;21.30;60.50
74153;DHT22;62505;46.070;14.492;2023-04-01T00:32:31;21.40;60.60
74153;DHT22;62505;46.070;14.492;2023-04-01T00:34:58;21.30;60.50
74153;DHT22;62505;46.070;14.492;2023-04-01T00:37:26;21.30;60.50
74153;DHT22;62505;46.070;14.492;2023-04-01T00:39:53;21.30;60.50
74153;DHT22;62505;46.070;14.492;2023-04-01T00:42:22;21.40;60.60
74153;DHT22;62505;46.070;14.492;2023-04-01T00:44:51;21.30;60.50
74153;DHT22;62505;46.070;14.492;2023-04-01T00:47:19;21.30;60.50
74153;DHT22;62505;46.070;14.492;2023-04-01T00:49:49;21.30;60.50
74153;DHT22;62505;46.070;14.492;2023-04-01T00:52:19;21.30;60.50
74153;DHT22;62505;46.070;14.492;2023-04-01T00:54:50;21.30;60.50
74153;DHT22;62505;46.070;14.492;2023-04-01T00:57:27;21.30;60.50
74153;DHT22;62505;46.070;14.492;2023-04-01T00:59:55;21.30;60.50
74153;DHT22;62505;46.070;14.492;2023-04-01T01:02:22;21.30;60.50
74153;DHT22;62505;46.070;14.492;2023-04-01T01:04:49;21.30;60.50
74153;DHT22;62505;46.070;14.492;2023-04-01T01:07:22;21.30;60.50
74153;DHT22;62505;46.070;14.492;2023-04-01T01:09:58;21.30;60.60
74153;DHT22;62505;46.070;14.492;2023-04-01T01:12:35;21.30;60.50
74153;DHT22;62505;46.070;14.492;2023-04-01T01:15:12;21.30;60.50
74153;DHT22;62505;46.070;14.492;2023-04-01T01:17:50;21.30;60.50
74153;DHT22;62505;46.070;14.492;2023-04-01T01:26:53;21.30;60.50
74153;DHT22;62505;46.070;14.492;2023-04-01T01:29:57;21.30;60.50
74153;DHT22;62505;46.070;14.492;2023-04-01T01:32:44;21.30;60.50
74153;DHT22;62505;46.070;14.492;2023-04-01T01:35:21;21.30;60.50
74153;DHT22;62505;46.070;14.492;2023-04-01T01:37:51;21.30;60.90
74153;DHT22;62505;46.070;14.492;2023-04-01T01:40:20;21.30;60.60
74153;DHT22;62505;46.070;14.492;2023-04-01T01:42:50;21.30;60.50
74153;DHT22;62505;46.070;14.492;2023-04-01T01:45:21;21.30;60.50
74153;DHT22;62505;46.070;14.492;2023-04-01T01:47:51;21.30;60.60
74153;DHT22;62505;46.070;14.492;2023-04-01T01:50:21;21.30;60.50
74153;DHT22;62505;46.070;14.492;2023-04-01T01:52:50;21.30;60.50
74153;DHT22;62505;46.070;14.492;2023-04-01T01:55:28;21.30;60.50
74153;DHT22;62505;46.070;14.492;2023-04-01T01:57:58;21.30;60.50
74153;DHT22;62505;46.070;14.492;2023-04-01T02:00:26;21.30;60.60
74153;DHT22;62505;46.070;14.492;2023-04-01T02:02:54;21.30;60.50
74153;DHT22;62505;46.070;14.492;2023-04-01T02:05:24;21.30;60.50
74153;DHT22;62505;46.070;14.492;2023-04-01T02:07:57;21.30;60.50
74153;DHT22;62505;46.070;14.492;2023-04-01T02:10:28;21.30;60.50
74153;DHT22;62505;46.070;14.492;2023-04-01T02:13:04;21.30;60.50
74153;DHT22;62505;46.070;14.492;2023-04-01T02:15:34;21.30;60.60
74153;DHT22;62505;46.070;14.492;2023-04-01T02:18:04;21.30;60.50
74153;DHT22;62505;46.070;14.492;2023-04-01T02:20:34;21.30;60.50
74153;DHT22;62505;46.070;14.492;2023-04-01T02:23:03;21.30;60.50
74153;DHT22;62505;46.070;14.492;2023-04-01T02:25:34;21.30;60.60
74153;DHT22;62505;46.070;14.492;2023-04-01T02:28:04;21.20;60.50
74153;DHT22;62505;46.070;14.492;2023-04-01T02:30:33;21.30;60.50
74153;DHT22;62505;46.070;14.492;2023-04-01T02:33:01;21.30;60.50
74153;DHT22;62505;46.070;14.492;2023-04-01T02:35:29;21.30;60.50
74153;DHT22;62505;46.070;14.492;2023-04-01T02:37:58;21.30;60.50
74153;DHT22;62505;46.070;14.492;2023-04-01T02:40:25;21.30;60.50
74153;DHT22;62505;46.070;14.492;2023-04-01T02:42:52;21.30;60.50
74153;DHT22;62505;46.070;14.492;2023-04-01T02:45:19;21.30;60.50
74153;DHT22;62505;46.070;14.492;2023-04-01T02:47:46;21.30;60.50
74153;DHT22;62505;46.070;14.492;2023-04-01T02:50:13;21.30;60.50
74153;DHT22;62505;46.070;14.492;2023-04-01T02:52:40;21.20;61.20
74153;DHT22;62505;46.070;14.492;2023-04-01T02:55:09;21.30;60.50
74153;DHT22;62505;46.070;14.492;2023-04-01T02:57:36;21.30;60.50
74153;DHT22;62505;46.070;14.492;2023-04-01T03:00:04;21.20;60.40
74153;DHT22;62505;46.070;14.492;2023-04-01T03:02:37;21.30;60.50
74153;DHT22;62505;46.070;14.492;2023-04-01T03:05:05;21.30;60.50
74153;DHT22;62505;46.070;14.492;2023-04-01T03:07:32;21.20;60.40
74153;DHT22;62505;46.070;14.492;2023-04-01T03:09:59;21.20;60.40
74153;DHT22;62505;46.070;14.492;2023-04-01T03:12:28;21.20;60.40
74153;DHT22;62505;46.070;14.492;2023-04-01T03:14:55;21.20;60.40
74153;DHT22;62505;46.070;14.492;2023-04-01T03:17:22;21.20;60.40
74153;DHT22;62505;46.070;14.492;2023-04-01T03:19:49;21.20;60.40
74153;DHT22;62505;46.070;14.492;2023-04-01T03:22:16;21.30;60.50
74153;DHT22;62505;46.070;14.492;2023-04-01T03:24:44;21.20;60.40
74153;DHT22;62505;46.070;14.492;2023-04-01T03:27:11;21.20;60.40
74153;DHT22;62505;46.070;14.492;2023-04-01T03:29:39;21.20;60.40
74153;DHT22;62505;46.070;14.492;2023-04-01T03:32:06;21.20;60.40
74153;DHT22;62505;46.070;14.492;2023-04-01T03:34:33;21.20;60.40
74153;DHT22;62505;46.070;14.492;2023-04-01T03:37:00;21.20;60.40
74153;DHT22;62505;46.070;14.492;2023-04-01T03:39:27;21.20;60.40
74153;DHT22;62505;46.070;14.492;2023-04-01T03:41:54;21.20;60.40
74153;DHT22;62505;46.070;14.492;2023-04-01T03:44:22;21.20;60.40
74153;DHT22;62505;46.070;14.492;2023-04-01T03:46:50;21.20;60.40
74153;DHT22;62505;46.070;14.492;2023-04-01T03:49:17;21.20;60.30
74153;DHT22;62505;46.070;14.492;2023-04-01T03:51:44;21.20;60.40
74153;DHT22;62505;46.070;14.492;2023-04-01T03:54:11;21.20;60.30
74153;DHT22;62505;46.070;14.492;2023-04-01T03:56:38;21.20;60.40
74153;DHT22;62505;46.070;14.492;2023-04-01T03:59:06;21.20;60.30
74153;DHT22;62505;46.070;14.492;2023-04-01T04:01:34;21.20;60.40
74153;DHT22;62505;46.070;14.492;2023-04-01T04:04:02;21.20;60.40
74153;DHT22;62505;46.070;14.492;2023-04-01T04:06:30;21.20;60.40
74153;DHT22;62505;46.070;14.492;2023-04-01T04:08:57;21.20;60.30
74153;DHT22;62505;46.070;14.492;2023-04-01T04:11:24;21.20;60.40
74153;DHT22;62505;46.070;14.492;2023-04-01T04:13:51;21.20;60.40
74153;DHT22;62505;46.070;14.492;2023-04-01T04:16:18;21.20;60.40
74153;DHT22;62505;46.070;14.492;2023-04-01T04:18:45;21.20;60.40
74153;DHT22;62505;46.070;14.492;2023-04-01T04:21:15;21.20;60.40
74153;DHT22;62505;46.070;14.492;2023-04-01T04:23:42;21.20;60.30
74153;DHT22;62505;46.070;14.492;2023-04-01T04:26:10;21.20;60.40
74153;DHT22;62505;46.070;14.492;2023-04-01T04:28:38;21.20;60.40
74153;DHT22;62505;46.070;14.492;2023-04-01T04:31:05;21.20;60.40
74153;DHT22;62505;46.070;14.492;2023-04-01T04:33:34;21.20;60.40
74153;DHT22;62505;46.070;14.492;2023-04-01T04:36:02;21.20;60.40
74153;DHT22;62505;46.070;14.492;2023-04-01T04:38:30;21.20;60.30
74153;DHT22;62505;46.070;14.492;2023-04-01T04:40:58;21.20;60.40
74153;DHT22;62505;46.070;14.492;2023-04-01T04:43:25;21.20;60.40
74153;DHT22;62505;46.070;14.492;2023-04-01T04:45:52;21.20;60.40
74153;DHT22;62505;46.070;14.492;2023-04-01T04:48:19;21.20;60.40
74153;DHT22;62505;46.070;14.492;2023-04-01T04:50:47;21.20;60.40
74153;DHT22;62505;46.070;14.492;2023-04-01T04:53:15;21.20;60.40
74153;DHT22;62505;46.070;14.492;2023-04-01T04:55:44;21.20;60.40
74153;DHT22;62505;46.070;14.492;2023-04-01T04:58:12;21.20;60.40
74153;DHT22;62505;46.070;14.492;2023-04-01T05:00:39;21.20;60.40
74153;DHT22;62505;46.070;14.492;2023-04-01T05:03:06;21.20;60.30
74153;DHT22;62505;46.070;14.492;2023-04-01T05:05:33;21.20;60.30
74153;DHT22;62505;46.070;14.492;2023-04-01T05:08:00;21.20;60.40
74153;DHT22;62505;46.070;14.492;2023-04-01T05:10:27;21.20;60.40
74153;DHT22;62505;46.070;14.492;2023-04-01T05:12:56;21.20;60.30
74153;DHT22;62505;46.070;14.492;2023-04-01T05:15:23;21.20;61.20
74153;DHT22;62505;46.070;14.492;2023-04-01T05:17:50;21.20;60.40
74153;DHT22;62505;46.070;14.492;2023-04-01T05:20:17;21.20;60.30
74153;DHT22;62505;46.070;14.492;2023-04-01T05:22:44;21.20;60.30
74153;DHT22;62505;46.070;14.492;2023-04-01T05:25:11;21.20;60.30
74153;DHT22;62505;46.070;14.492;2023-04-01T05:27:38;21.20;60.30
74153;DHT22;62505;46.070;14.492;2023-04-01T05:30:07;21.20;60.30
74153;DHT22;62505;46.070;14.492;2023-04-01T05:32:35;21.20;60.30
74153;DHT22;62505;46.070;14.492;2023-04-01T05:35:02;21.20;60.30
74153;DHT22;62505;46.070;14.492;2023-04-01T05:37:29;21.20;60.30
74153;DHT22;62505;46.070;14.492;2023-04-01T05:39:56;21.20;60.30
74153;DHT22;62505;46.070;14.492;2023-04-01T05:42:24;21.20;60.30
74153;DHT22;62505;46.070;14.492;2023-04-01T05:44:51;21.20;60.30
74153;DHT22;62505;46.070;14.492;2023-04-01T05:47:19;21.20;60.30
74153;DHT22;62505;46.070;14.492;2023-04-01T05:49:46;21.20;60.30
74153;DHT22;62505;46.070;14.492;2023-04-01T05:52:13;21.20;60.30
74153;DHT22;62505;46.070;14.492;2023-04-01T05:54:41;21.20;60.20
74153;DHT22;62505;46.070;14.492;2023-04-01T05:57:08;21.20;60.20
74153;DHT22;62505;46.070;14.492;2023-04-01T05:59:35;21.20;60.20
74153;DHT22;62505;46.070;14.492;2023-04-01T06:02:02;21.20;60.20
74153;DHT22;62505;46.070;14.492;2023-04-01T06:04:37;21.20;60.30
74153;DHT22;62505;46.070;14.492;2023-04-01T06:07:10;21.20;60.20
74153;DHT22;62505;46.070;14.492;2023-04-01T06:09:37;21.20;60.30
74153;DHT22;62505;46.070;14.492;2023-04-01T06:12:20;21.20;60.20
74153;DHT22;62505;46.070;14.492;2023-04-01T06:14:59;21.20;60.20
74153;DHT22;62505;46.070;14.492;2023-04-01T06:17:39;21.20;60.20
74153;DHT22;62505;46.070;14.492;2023-04-01T06:20:12;21.20;60.30
74153;DHT22;62505;46.070;14.492;2023-04-01T06:22:52;21.20;60.20
74153;DHT22;62505;46.070;14.492;2023-04-01T06:25:50;21.10;60.20
74153;DHT22;62505;46.070;14.492;2023-04-01T06:28:52;21.20;60.30
74153;DHT22;62505;46.070;14.492;2023-04-01T06:34:30;21.20;60.30
74153;DHT22;62505;46.070;14.492;2023-04-01T06:37:16;21.20;60.20
74153;DHT22;62505;46.070;14.492;2023-04-01T06:40:02;21.20;60.20
74153;DHT22;62505;46.070;14.492;2023-04-01T06:42:45;21.20;60.20
74153;DHT22;62505;46.070;14.492;2023-04-01T06:45:28;21.20;60.20
74153;DHT22;62505;46.070;14.492;2023-04-01T06:48:06;21.10;60.20
74153;DHT22;62505;46.070;14.492;2023-04-01T06:50:43;21.10;60.20
74153;DHT22;62505;46.070;14.492;2023-04-01T06:53:17;21.20;60.20
74153;DHT22;62505;46.070;14.492;2023-04-01T06:55:47;21.20;60.20
74153;DHT22;62505;46.070;14.492;2023-04-01T06:58:20;21.10;60.20
74153;DHT22;62505;46.070;14.492;2023-04-01T07:00:50;21.20;60.20
74153;DHT22;62505;46.070;14.492;2023-04-01T07:03:21;21.20;60.20
74153;DHT22;62505;46.070;14.492;2023-04-01T07:05:49;21.20;60.20
74153;DHT22;62505;46.070;14.492;2023-04-01T07:08:23;21.20;60.20
74153;DHT22;62505;46.070;14.492;2023-04-01T07:10:55;21.20;60.30
74153;DHT22;62505;46.070;14.492;2023-04-01T07:13:27;21.10;60.20
74153;DHT22;62505;46.070;14.492;2023-04-01T07:15:59;21.20;60.30
74153;DHT22;62505;46.070;14.492;2023-04-01T07:18:32;21.20;60.30
74153;DHT22;62505;46.070;14.492;2023-04-01T07:21:01;21.20;60.30
74153;DHT22;62505;46.070;14.492;2023-04-01T07:23:36;21.20;60.30
74153;DHT22;62505;46.070;14.492;2023-04-01T07:26:12;21.10;60.20
74153;DHT22;62505;46.070;14.492;2023-04-01T07:28:41;21.20;60.30
74153;DHT22;62505;46.070;14.492;2023-04-01T07:31:18;21.20;60.30
74153;DHT22;62505;46.070;14.492;2023-04-01T07:33:54;21.20;60.30
74153;DHT22;62505;46.070;14.492;2023-04-01T07:36:28;21.20;60.30
74153;DHT22;62505;46.070;14.492;2023-04-01T07:39:07;21.20;60.30
74153;DHT22;62505;46.070;14.492;2023-04-01T07:41:44;21.20;60.30
74153;DHT22;62505;46.070;14.492;2023-04-01T07:44:21;21.20;60.30
74153;DHT22;62505;46.070;14.492;2023-04-01T07:47:16;21.20;60.30
74153;DHT22;62505;46.070;14.492;2023-04-01T07:49:54;21.20;60.70
74153;DHT22;62505;46.070;14.492;2023-04-01T07:52:31;21.20;60.50
74153;DHT22;62505;46.070;14.492;2023-04-01T07:55:09;21.20;60.50
74153;DHT22;62505;46.070;14.492;2023-04-01T07:57:46;21.20;60.50
74153;DHT22;62505;46.070;14.492;2023-04-01T08:00:18;21.20;60.50
74153;DHT22;62505;46.070;14.492;2023-04-01T08:03:12;21.20;60.40
74153;DHT22;62505;46.070;14.492;2023-04-01T08:05:53;21.20;60.40
74153;DHT22;62505;46.070;14.492;2023-04-01T08:08:31;21.20;60.50
74153;DHT22;62505;46.070;14.492;2023-04-01T08:11:11;21.20;60.50
74153;DHT22;62505;46.070;14.492;2023-04-01T08:13:45;21.20;60.60
74153;DHT22;62505;46.070;14.492;2023-04-01T08:16:22;21.20;60.50
74153;DHT22;62505;46.070;14.492;2023-04-01T08:18:57;21.20;60.70
74153;DHT22;62505;46.070;14.492;2023-04-01T08:21:28;21.20;60.70
74153;DHT22;62505;46.070;14.492;2023-04-01T08:24:05;21.20;60.80
74153;DHT22;62505;46.070;14.492;2023-04-01T08:26:39;21.20;60.80
74153;DHT22;62505;46.070;14.492;2023-04-01T08:29:13;21.20;60.70
74153;DHT22;62505;46.070;14.492;2023-04-01T08:31:43;21.20;60.80
74153;DHT22;62505;46.070;14.492;2023-04-01T08:34:17;21.20;60.70
74153;DHT22;62505;46.070;14.492;2023-04-01T08:36:49;21.20;60.80
74153;DHT22;62505;46.070;14.492;2023-04-01T08:39:27;21.20;60.70
74153;DHT22;62505;46.070;14.492;2023-04-01T08:45:14;21.20;60.70
74153;DHT22;62505;46.070;14.492;2023-04-01T08:48:16;21.20;60.70
74153;DHT22;62505;46.070;14.492;2023-04-01T08:51:11;21.20;60.70
74153;DHT22;62505;46.070;14.492;2023-04-01T08:53:58;21.20;60.80
74153;DHT22;62505;46.070;14.492;2023-04-01T08:56:34;21.20;60.80
74153;DHT22;62505;46.070;14.492;2023-04-01T08:59:27;21.20;60.80
74153;DHT22;62505;46.070;14.492;2023-04-01T09:05:16;21.30;68.10
74153;DHT22;62505;46.070;14.492;2023-04-01T09:07:51;21.30;64.00
74153;DHT22;62505;46.070;14.492;2023-04-01T09:10:45;21.30;64.40
74153;DHT22;62505;46.070;14.492;2023-04-01T09:16:26;21.30;65.40
74153;DHT22;62505;46.070;14.492;2023-04-01T09:19:21;21.30;65.50
74153;DHT22;62505;46.070;14.492;2023-04-01T09:22:24;21.20;65.20
74153;DHT22;62505;46.070;14.492;2023-04-01T09:25:22;21.20;65.70
74153;DHT22;62505;46.070;14.492;2023-04-01T09:27:57;21.20;65.70
74153;DHT22;62505;46.070;14.492;2023-04-01T09:30:55;21.30;66.00
74153;DHT22;62505;46.070;14.492;2023-04-01T09:33:49;21.30;66.40
74153;DHT22;62505;46.070;14.492;2023-04-01T09:36:43;21.30;66.80
74153;DHT22;62505;46.070;14.492;2023-04-01T09:39:32;21.30;66.80
74153;DHT22;62505;46.070;14.492;2023-04-01T09:42:24;21.30;66.90
74153;DHT22;62505;46.070;14.492;2023-04-01T09:44:58;21.30;67.00
74153;DHT22;62505;46.070;14.492;2023-04-01T09:47:43;21.30;67.10
74153;DHT22;62505;46.070;14.492;2023-04-01T09:50:26;21.30;66.80
74153;DHT22;62505;46.070;14.492;2023-04-01T09:53:05;21.30;66.90
74153;DHT22;62505;46.070;14.492;2023-04-01T10:05:25;21.40;67.40
74153;DHT22;62505;46.070;14.492;2023-04-01T10:14:37;21.30;67.60
74153;DHT22;62505;46.070;14.492;2023-04-01T10:17:37;21.30;67.50
74153;DHT22;62505;46.070;14.492;2023-04-01T10:20:37;21.40;67.80
74153;DHT22;62505;46.070;14.492;2023-04-01T10:23:21;21.30;67.90
74153;DHT22;62505;46.070;14.492;2023-04-01T10:26:15;21.40;67.40
74153;DHT22;62505;46.070;14.492;2023-04-01T10:29:19;21.30;67.70
74153;DHT22;62505;46.070;14.492;2023-04-01T10:32:19;21.30;67.70
74153;DHT22;62505;46.070;14.492;2023-04-01T10:35:09;21.30;68.00
74153;DHT22;62505;46.070;14.492;2023-04-01T10:38:09;21.30;67.60
74153;DHT22;62505;46.070;14.492;2023-04-01T10:40:57;21.30;67.60
74153;DHT22;62505;46.070;14.492;2023-04-01T10:46:54;21.30;67.60
74153;DHT22;62505;46.070;14.492;2023-04-01T10:49:50;21.30;67.80
74153;DHT22;62505;46.070;14.492;2023-04-01T10:53:03;21.30;67.70
74153;DHT22;62505;46.070;14.492;2023-04-01T10:56:00;21.30;67.90
74153;DHT22;62505;46.070;14.492;2023-04-01T11:05:17;21.30;68.10
74153;DHT22;62505;46.070;14.492;2023-04-01T11:11:29;21.30;68.10
74153;DHT22;62505;46.070;14.492;2023-04-01T11:17:33;21.30;68.30
74153;DHT22;62505;46.070;14.492;2023-04-01T11:23:37;21.30;68.10
74153;DHT22;62505;46.070;14.492;2023-04-01T11:26:15;21.30;68.30
74153;DHT22;62505;46.070;14.492;2023-04-01T11:29:02;21.30;68.40
74153;DHT22;62505;46.070;14.492;2023-04-01T11:31:37;21.30;68.30
74153;DHT22;62505;46.070;14.492;2023-04-01T11:37:25;21.30;68.50
74153;DHT22;62505;46.070;14.492;2023-04-01T11:40:02;21.30;68.70
74153;DHT22;62505;46.070;14.492;2023-04-01T11:42:40;21.30;68.80
74153;DHT22;62505;46.070;14.492;2023-04-01T11:45:22;21.30;68.70
74153;DHT22;62505;46.070;14.492;2023-04-01T11:48:32;21.30;68.90
74153;DHT22;62505;46.070;14.492;2023-04-01T11:51:30;21.30;68.90
74153;DHT22;62505;46.070;14.492;2023-04-01T11:54:05;21.30;69.10
74153;DHT22;62505;46.070;14.492;2023-04-01T11:57:06;21.30;69.00
74153;DHT22;62505;46.070;14.492;2023-04-01T11:59:47;21.30;69.10
74153;DHT22;62505;46.070;14.492;2023-04-01T12:02:20;21.30;69.00
74153;DHT22;62505;46.070;14.492;2023-04-01T12:05:00;21.30;69.20
74153;DHT22;62505;46.070;14.492;2023-04-01T12:07:48;21.30;69.10
74153;DHT22;62505;46.070;14.492;2023-04-01T12:10:19;21.30;69.00
74153;DHT22;62505;46.070;14.492;2023-04-01T12:12:54;21.30;69.20
74153;DHT22;62505;46.070;14.492;2023-04-01T12:15:30;21.30;69.00
74153;DHT22;62505;46.070;14.492;2023-04-01T12:18:12;21.30;69.20
74153;DHT22;62505;46.070;14.492;2023-04-01T12:20:49;21.30;69.20
74153;DHT22;62505;46.070;14.492;2023-04-01T12:26:23;21.30;69.00
74153;DHT22;62505;46.070;14.492;2023-04-01T12:29:09;21.30;69.20
74153;DHT22;62505;46.070;14.492;2023-04-01T12:31:51;21.30;69.00
74153;DHT22;62505;46.070;14.492;2023-04-01T12:34:41;21.30;68.90
74153;DHT22;62505;46.070;14.492;2023-04-01T12:37:18;21.30;69.40
74153;DHT22;62505;46.070;14.492;2023-04-01T12:40:02;21.30;69.30
74153;DHT22;62505;46.070;14.492;2023-04-01T12:42:50;21.30;69.40
74153;DHT22;62505;46.070;14.492;2023-04-01T12:45:28;21.30;69.20
74153;DHT22;62505;46.070;14.492;2023-04-01T12:48:16;21.30;69.00
74153;DHT22;62505;46.070;14.492;2023-04-01T12:51:05;21.30;69.20
74153;DHT22;62505;46.070;14.492;2023-04-01T12:53:46;21.30;69.00
74153;DHT22;62505;46.070;14.492;2023-04-01T12:56:22;21.30;69.00
74153;DHT22;62505;46.070;14.492;2023-04-01T12:59:19;21.30;69.00
74153;DHT22;62505;46.070;14.492;2023-04-01T13:02:01;21.30;68.90
74153;DHT22;62505;46.070;14.492;2023-04-01T13:08:00;21.30;69.00
74153;DHT22;62505;46.070;14.492;2023-04-01T13:11:07;21.30;68.80
74153;DHT22;62505;46.070;14.492;2023-04-01T13:14:10;21.30;68.90
74153;DHT22;62505;46.070;14.492;2023-04-01T13:16:43;21.30;69.00
74153;DHT22;62505;46.070;14.492;2023-04-01T13:19:19;21.30;68.90
74153;DHT22;62505;46.070;14.492;2023-04-01T13:21:54;21.30;68.90
74153;DHT22;62505;46.070;14.492;2023-04-01T13:24:34;21.30;68.90
74153;DHT22;62505;46.070;14.492;2023-04-01T13:27:08;21.30;68.90
74153;DHT22;62505;46.070;14.492;2023-04-01T13:29:38;21.30;69.80
74153;DHT22;62505;46.070;14.492;2023-04-01T13:32:18;21.30;68.80
74153;DHT22;62505;46.070;14.492;2023-04-01T13:34:59;21.30;68.90
74153;DHT22;62505;46.070;14.492;2023-04-01T13:37:42;21.30;68.80
74153;DHT22;62505;46.070;14.492;2023-04-01T13:40:34;21.30;69.00
74153;DHT22;62505;46.070;14.492;2023-04-01T13:43:11;21.30;68.80
74153;DHT22;62505;46.070;14.492;2023-04-01T13:45:50;21.30;69.10
74153;DHT22;62505;46.070;14.492;2023-04-01T13:48:32;21.30;69.90
74153;DHT22;62505;46.070;14.492;2023-04-01T13:51:25;21.30;69.00
74153;DHT22;62505;46.070;14.492;2023-04-01T13:57:22;21.30;68.90
74153;DHT22;62505;46.070;14.492;2023-04-01T14:00:03;21.30;68.80
74153;DHT22;62505;46.070;14.492;2023-04-01T14:02:54;21.30;69.00
74153;DHT22;62505;46.070;14.492;2023-04-01T14:05:47;21.30;68.70
74153;DHT22;62505;46.070;14.492;2023-04-01T14:08:33;21.30;69.50
74153;DHT22;62505;46.070;14.492;2023-04-01T14:11:13;21.30;69.30
74153;DHT22;62505;46.070;14.492;2023-04-01T14:13:53;21.30;69.00
74153;DHT22;62505;46.070;14.492;2023-04-01T14:16:55;21.30;69.20
74153;DHT22;62505;46.070;14.492;2023-04-01T14:19:44;21.30;68.80
74153;DHT22;62505;46.070;14.492;2023-04-01T14:22:23;21.30;68.90
74153;DHT22;62505;46.070;14.492;2023-04-01T14:25:07;21.30;69.10
74153;DHT22;62505;46.070;14.492;2023-04-01T14:27:47;21.30;69.00
74153;DHT22;62505;46.070;14.492;2023-04-01T14:33:26;21.30;69.00
74153;DHT22;62505;46.070;14.492;2023-04-01T14:38:54;21.30;68.90
74153;DHT22;62505;46.070;14.492;2023-04-01T14:41:34;21.30;68.90
74153;DHT22;62505;46.070;14.492;2023-04-01T14:44:29;21.30;68.90
74153;DHT22;62505;46.070;14.492;2023-04-01T14:47:11;21.30;68.90
74153;DHT22;62505;46.070;14.492;2023-04-01T14:49:43;21.30;69.00
74153;DHT22;62505;46.070;14.492;2023-04-01T14:52:16;21.30;69.00
74153;DHT22;62505;46.070;14.492;2023-04-01T14:54:49;21.30;68.90
74153;DHT22;62505;46.070;14.492;2023-04-01T14:57:23;21.30;68.70
74153;DHT22;62505;46.070;14.492;2023-04-01T14:59:53;21.30;68.80
74153;DHT22;62505;46.070;14.492;2023-04-01T15:02:37;21.30;68.90
74153;DHT22;62505;46.070;14.492;2023-04-01T15:05:16;21.30;68.90
74153;DHT22;62505;46.070;14.492;2023-04-01T15:08:01;21.30;68.80
74153;DHT22;62505;46.070;14.492;2023-04-01T15:11:07;21.30;68.80
74153;DHT22;62505;46.070;14.492;2023-04-01T15:13:50;21.30;68.80
74153;DHT22;62505;46.070;14.492;2023-04-01T15:16:25;21.30;69.10
74153;DHT22;62505;46.070;14.492;2023-04-01T15:19:05;21.30;68.80
74153;DHT22;62505;46.070;14.492;2023-04-01T15:21:50;21.30;68.80
74153;DHT22;62505;46.070;14.492;2023-04-01T15:24:22;21.30;69.00
74153;DHT22;62505;46.070;14.492;2023-04-01T15:27:11;21.30;69.00
74153;DHT22;62505;46.070;14.492;2023-04-01T15:32:44;21.30;68.90
74153;DHT22;62505;46.070;14.492;2023-04-01T15:35:25;21.30;68.90
74153;DHT22;62505;46.070;14.492;2023-04-01T15:38:03;21.30;68.80
74153;DHT22;62505;46.070;14.492;2023-04-01T15:40:41;21.30;69.00
74153;DHT22;62505;46.070;14.492;2023-04-01T15:43:19;21.30;69.00
74153;DHT22;62505;46.070;14.492;2023-04-01T15:45:54;21.30;68.90
74153;DHT22;62505;46.070;14.492;2023-04-01T15:48:34;21.30;68.70
74153;DHT22;62505;46.070;14.492;2023-04-01T15:51:32;21.20;69.00
74153;DHT22;62505;46.070;14.492;2023-04-01T15:54:25;21.30;69.00
74153;DHT22;62505;46.070;14.492;2023-04-01T15:57:16;21.30;69.10
74153;DHT22;62505;46.070;14.492;2023-04-01T16:00:18;21.30;69.00
74153;DHT22;62505;46.070;14.492;2023-04-01T16:02:48;21.30;69.00
74153;DHT22;62505;46.070;14.492;2023-04-01T16:05:37;21.30;69.20
74153;DHT22;62505;46.070;14.492;2023-04-01T16:08:18;21.30;68.90
74153;DHT22;62505;46.070;14.492;2023-04-01T16:10:56;21.30;69.00
74153;DHT22;62505;46.070;14.492;2023-04-01T16:13:36;21.30;69.00
74153;DHT22;62505;46.070;14.492;2023-04-01T16:16:14;21.30;69.10
74153;DHT22;62505;46.070;14.492;2023-04-01T16:19:00;21.30;69.00
74153;DHT22;62505;46.070;14.492;2023-04-01T16:21:36;21.30;68.90
74153;DHT22;62505;46.070;14.492;2023-04-01T16:24:14;21.30;68.90
74153;DHT22;62505;46.070;14.492;2023-04-01T16:26:49;21.30;68.80
74153;DHT22;62505;46.070;14.492;2023-04-01T16:29:24;21.30;68.90
74153;DHT22;62505;46.070;14.492;2023-04-01T16:31:58;21.30;69.10
74153;DHT22;62505;46.070;14.492;2023-04-01T16:34:31;21.30;69.00
74153;DHT22;62505;46.070;14.492;2023-04-01T16:37:07;21.30;69.00
74153;DHT22;62505;46.070;14.492;2023-04-01T16:39:46;21.20;69.10
74153;DHT22;62505;46.070;14.492;2023-04-01T16:42:31;21.30;69.00
74153;DHT22;62505;46.070;14.492;2023-04-01T16:45:08;21.30;69.00
74153;DHT22;62505;46.070;14.492;2023-04-01T16:47:47;21.30;69.00
74153;DHT22;62505;46.070;14.492;2023-04-01T16:50:19;21.30;68.80
74153;DHT22;62505;46.070;14.492;2023-04-01T16:55:43;21.30;68.90
74153;DHT22;62505;46.070;14.492;2023-04-01T16:58:20;21.30;68.80
74153;DHT22;62505;46.070;14.492;2023-04-01T17:00:49;21.30;68.70
74153;DHT22;62505;46.070;14.492;2023-04-01T17:03:21;21.30;68.70
74153;DHT22;62505;46.070;14.492;2023-04-01T17:06:02;21.30;68.90
74153;DHT22;62505;46.070;14.492;2023-04-01T17:08:39;21.30;68.90
74153;DHT22;62505;46.070;14.492;2023-04-01T17:11:13;21.30;68.70
74153;DHT22;62505;46.070;14.492;2023-04-01T17:13:52;21.30;68.70
74153;DHT22;62505;46.070;14.492;2023-04-01T17:16:40;21.30;68.70
74153;DHT22;62505;46.070;14.492;2023-04-01T17:19:14;21.30;68.70
74153;DHT22;62505;46.070;14.492;2023-04-01T17:21:53;21.30;69.30
74153;DHT22;62505;46.070;14.492;2023-04-01T17:24:41;21.30;68.60
74153;DHT22;62505;46.070;14.492;2023-04-01T17:27:23;21.30;68.70
74153;DHT22;62505;46.070;14.492;2023-04-01T17:30:17;21.30;68.70
74153;DHT22;62505;46.070;14.492;2023-04-01T17:32:58;21.30;68.60